Time,TemperatureF,DewpointF,PressureIn,WindDirection,WindDirectionDegrees,WindSpeedMPH,WindSpeedGustMPH,Humidity,HourlyPrecipIn,Conditions,Clouds,dailyrainin,SoftwareType,DateUTC
2013-03-03 00:11:00,38.1,25.1,29.96,SE,135,0.0,-999.0,59,-99.99,,,0.00,Acu-Link.com,2013-03-03 07:11:00,
2013-03-03 00:26:00,37.8,24.8,29.95,SSE,157,0.0,-999.0,59,-99.99,,,0.00,Acu-Link.com,2013-03-03 07:26:00,
2013-03-03 00:42:00,37.2,25.0,29.94,SSE,157,0.0,-999.0,61,-99.99,,,0.00,Acu-Link.com,2013-03-03 07:42:00,
2013-03-03 00:57:00,36.9,24.3,29.94,SE,135,0.0,-999.0,60,-99.99,,,0.00,Acu-Link.com,2013-03-03 07:57:00,
2013-03-03 01:12:00,36.5,24.0,29.95,SSE,157,0.0,-999.0,60,-99.99,,,0.00,Acu-Link.com,2013-03-03 08:12:00,
2013-03-03 01:28:00,36.1,23.6,29.96,SSE,157,0.0,-999.0,60,-99.99,,,0.00,Acu-Link.com,2013-03-03 08:28:00,
2013-03-03 01:43:00,35.8,24.1,29.95,ESE,112,0.0,-999.0,62,-99.99,,,0.00,Acu-Link.com,2013-03-03 08:43:00,
2013-03-03 01:58:00,35.4,23.7,29.94,SE,135,0.0,-999.0,62,-99.99,,,0.00,Acu-Link.com,2013-03-03 08:58:00,
2013-03-03 02:18:00,35.2,23.5,29.94,SSE,157,0.0,-999.0,62,-99.99,,,0.00,Acu-Link.com,2013-03-03 09:18:00,
2013-03-03 02:34:00,34.5,23.2,29.92,SSW,202,0.0,-999.0,63,-99.99,,,0.00,Acu-Link.com,2013-03-03 09:34:00,
2013-03-03 02:49:00,33.6,23.1,29.92,ESE,112,0.0,-999.0,65,-99.99,,,0.00,Acu-Link.com,2013-03-03 09:49:00,
2013-03-03 03:04:00,32.9,22.8,29.91,SSW,202,0.0,-999.0,66,-99.99,,,0.00,Acu-Link.com,2013-03-03 10:04:00,
2013-03-03 03:19:00,32.4,23.0,29.91,West,270,0.0,-999.0,68,-99.99,,,0.00,Acu-Link.com,2013-03-03 10:19:00,
2013-03-03 03:35:00,31.8,22.5,29.89,East,90,0.0,-999.0,68,-99.99,,,0.00,Acu-Link.com,2013-03-03 10:35:00,
2013-03-03 03:50:00,32.0,22.7,29.90,South,180,0.0,-999.0,68,-99.99,,,0.00,Acu-Link.com,2013-03-03 10:50:00,
2013-03-03 04:05:00,31.3,22.7,29.91,SW,225,0.0,-999.0,70,-99.99,,,0.00,Acu-Link.com,2013-03-03 11:05:00,
2013-03-03 04:21:00,31.3,22.3,29.90,WSW,247,0.0,-999.0,69,-99.99,,,0.00,Acu-Link.com,2013-03-03 11:21:00,
2013-03-03 04:36:00,31.1,22.5,29.90,ESE,112,0.0,-999.0,70,-99.99,,,0.00,Acu-Link.com,2013-03-03 11:36:00,
2013-03-03 04:51:00,31.5,22.9,29.89,WSW,247,0.0,-999.0,70,-99.99,,,0.00,Acu-Link.com,2013-03-03 11:51:00,
2013-03-03 05:06:00,31.1,22.5,29.89,ESE,112,0.0,-999.0,70,-99.99,,,0.00,Acu-Link.com,2013-03-03 12:06:00,
2013-03-03 05:22:00,30.7,22.4,29.89,South,180,0.0,-999.0,71,-99.99,,,0.00,Acu-Link.com,2013-03-03 12:22:00,
2013-03-03 05:37:00,30.6,22.3,29.88,SSW,202,0.0,-999.0,71,-99.99,,,0.00,Acu-Link.com,2013-03-03 12:37:00,
2013-03-03 05:52:00,30.4,22.1,29.89,SSE,157,0.0,-999.0,71,-99.99,,,0.00,Acu-Link.com,2013-03-03 12:52:00,
2013-03-03 06:08:00,29.8,21.9,29.89,SW,225,0.0,-999.0,72,-99.99,,,0.00,Acu-Link.com,2013-03-03 13:08:00,
2013-03-03 06:23:00,30.2,21.9,29.89,East,90,0.0,-999.0,71,-99.99,,,0.00,Acu-Link.com,2013-03-03 13:23:00,
2013-03-03 06:38:00,29.8,20.9,29.88,West,270,0.0,-999.0,69,-99.99,,,0.00,Acu-Link.com,2013-03-03 13:38:00,
2013-03-03 06:53:00,29.5,21.6,29.88,ESE,112,0.0,-999.0,72,-99.99,,,0.00,Acu-Link.com,2013-03-03 13:53:00,
2013-03-03 07:09:00,30.0,22.1,29.88,SE,135,0.0,-999.0,72,-99.99,,,0.00,Acu-Link.com,2013-03-03 14:09:00,
2013-03-03 07:24:00,31.5,23.5,29.87,SSW,202,0.0,-999.0,72,-99.99,,,0.00,Acu-Link.com,2013-03-03 14:24:00,
2013-03-03 07:39:00,36.7,27.9,29.87,ESE,112,0.0,-999.0,70,-99.99,,,0.00,Acu-Link.com,2013-03-03 14:39:00,
2013-03-03 07:55:00,44.4,27.4,29.86,SSE,157,2.7,-999.0,51,-99.99,,,0.00,Acu-Link.com,2013-03-03 14:55:00,
2013-03-03 08:10:00,51.6,28.7,29.86,SSE,157,1.1,-999.0,41,-99.99,,,0.00,Acu-Link.com,2013-03-03 15:10:00,
2013-03-03 08:25:00,52.7,27.8,29.86,SSE,157,2.2,-999.0,38,-99.99,,,0.00,Acu-Link.com,2013-03-03 15:25:00,
2013-03-03 08:41:00,52.9,26.0,29.85,SSE,157,0.0,-999.0,35,-99.99,,,0.00,Acu-Link.com,2013-03-03 15:41:00,
2013-03-03 08:56:00,52.9,26.7,29.86,SSE,157,2.7,-999.0,36,-99.99,,,0.00,Acu-Link.com,2013-03-03 15:56:00,
2013-03-03 09:11:00,55.6,27.7,29.84,ESE,112,5.3,-999.0,34,-99.99,,,0.00,Acu-Link.com,2013-03-03 16:11:00,
2013-03-03 09:26:00,57.0,26.7,29.83,West,270,2.2,-999.0,31,-99.99,,,0.00,Acu-Link.com,2013-03-03 16:26:00,
2013-03-03 09:41:00,56.8,26.5,29.83,West,270,3.2,-999.0,31,-99.99,,,0.00,Acu-Link.com,2013-03-03 16:41:00,
2013-03-03 09:57:00,58.8,26.6,29.82,NW,315,3.2,-999.0,29,-99.99,,,0.00,Acu-Link.com,2013-03-03 16:57:00,
2013-03-03 10:12:00,60.6,27.3,29.81,ESE,112,3.2,-999.0,28,-99.99,,,0.00,Acu-Link.com,2013-03-03 17:12:00,
2013-03-03 10:27:00,61.7,27.4,29.81,WSW,247,3.7,-999.0,27,-99.99,,,0.00,Acu-Link.com,2013-03-03 17:27:00,
2013-03-03 10:42:00,60.6,26.4,29.79,SE,135,2.7,-999.0,27,-99.99,,,0.00,Acu-Link.com,2013-03-03 17:42:00,
2013-03-03 10:58:00,61.0,26.8,29.79,ESE,112,2.7,-999.0,27,-99.99,,,0.00,Acu-Link.com,2013-03-03 17:58:00,
2013-03-03 11:13:00,63.7,26.2,29.76,North,0,2.7,-999.0,24,-99.99,,,0.00,Acu-Link.com,2013-03-03 18:13:00,
2013-03-03 11:28:00,63.3,22.7,29.77,ENE,67,2.7,-999.0,21,-99.99,,,0.00,Acu-Link.com,2013-03-03 18:28:00,
2013-03-03 11:43:00,62.4,22.0,29.76,SE,135,0.0,-999.0,21,-99.99,,,0.00,Acu-Link.com,2013-03-03 18:43:00,
2013-03-03 11:59:00,62.4,22.0,29.75,SE,135,2.7,-999.0,21,-99.99,,,0.00,Acu-Link.com,2013-03-03 18:59:00,
2013-03-03 12:14:00,61.5,23.4,29.73,SSE,157,1.7,-999.0,23,-99.99,,,0.00,Acu-Link.com,2013-03-03 19:14:00,
2013-03-03 12:29:00,66.4,22.9,29.74,ESE,112,3.2,-999.0,19,-99.99,,,0.00,Acu-Link.com,2013-03-03 19:29:00,
2013-03-03 12:45:00,66.9,22.0,29.71,West,270,1.7,-999.0,18,-99.99,,,0.00,Acu-Link.com,2013-03-03 19:45:00,
2013-03-03 13:00:00,69.8,21.6,29.71,NE,45,2.7,-999.0,16,-99.99,,,0.00,Acu-Link.com,2013-03-03 20:00:00,
2013-03-03 13:15:00,69.4,-35.2,29.69,SE,135,1.7,-999.0,1,-99.99,,,0.00,Acu-Link.com,2013-03-03 20:15:00,
2013-03-03 13:31:00,69.6,5.7,29.67,South,180,0.0,-999.0,8,-99.99,,,0.00,Acu-Link.com,2013-03-03 20:31:00,
2013-03-03 13:46:00,69.3,-35.2,29.67,ESE,112,1.7,-999.0,1,-99.99,,,0.00,Acu-Link.com,2013-03-03 20:46:00,
2013-03-03 14:01:00,69.4,-35.2,29.65,East,90,6.8,-999.0,1,-99.99,,,0.00,Acu-Link.com,2013-03-03 21:01:00,
2013-03-03 14:17:00,69.4,-35.2,29.65,ESE,112,4.2,-999.0,1,-99.99,,,0.00,Acu-Link.com,2013-03-03 21:17:00,
2013-03-03 14:32:00,68.4,-35.8,29.64,South,180,5.8,-999.0,1,-99.99,,,0.00,Acu-Link.com,2013-03-03 21:32:00,
2013-03-03 14:47:00,68.7,-35.6,29.64,NW,315,1.7,-999.0,1,-99.99,,,0.00,Acu-Link.com,2013-03-03 21:47:00,
2013-03-03 15:02:00,68.5,-35.7,29.63,West,270,3.2,-999.0,1,-99.99,,,0.00,Acu-Link.com,2013-03-03 22:02:00,
2013-03-03 15:17:00,68.9,-35.5,29.63,West,270,1.1,-999.0,1,-99.99,,,0.00,Acu-Link.com,2013-03-03 22:17:00,
2013-03-03 15:33:00,71.2,-34.1,29.62,ESE,112,2.7,-999.0,1,-99.99,,,0.00,Acu-Link.com,2013-03-03 22:33:00,
2013-03-03 15:48:00,70.0,-34.8,29.62,WSW,247,3.7,-999.0,1,-99.99,,,0.00,Acu-Link.com,2013-03-03 22:48:00,
2013-03-03 16:03:00,70.7,-34.4,29.61,ESE,112,2.7,-999.0,1,-99.99,,,0.00,Acu-Link.com,2013-03-03 23:03:00,
2013-03-03 16:18:00,70.2,-34.7,29.62,WSW,247,2.2,-999.0,1,-99.99,,,0.00,Acu-Link.com,2013-03-03 23:18:00,
2013-03-03 16:34:00,69.6,-35.1,29.62,West,270,2.7,-999.0,1,-99.99,,,0.00,Acu-Link.com,2013-03-03 23:34:00,
2013-03-03 16:49:00,68.0,-36.0,29.61,SSW,202,2.2,-999.0,1,-99.99,,,0.00,Acu-Link.com,2013-03-03 23:49:00,
2013-03-03 17:04:00,66.6,-36.9,29.62,NNW,337,1.1,-999.0,1,-99.99,,,0.00,Acu-Link.com,2013-03-04 00:04:00,
2013-03-03 17:20:00,65.5,-37.5,29.62,WNW,292,2.7,-999.0,1,-99.99,,,0.00,Acu-Link.com,2013-03-04 00:20:00,
2013-03-03 17:35:00,64.9,-37.9,29.63,SW,225,3.2,-999.0,1,-99.99,,,0.00,Acu-Link.com,2013-03-04 00:35:00,
2013-03-03 17:50:00,64.4,-38.2,29.65,East,90,2.2,-999.0,1,-99.99,,,0.00,Acu-Link.com,2013-03-04 00:50:00,
2013-03-03 18:05:00,63.3,20.4,29.64,NW,315,4.2,-999.0,19,-99.99,,,0.00,Acu-Link.com,2013-03-04 01:05:00,
2013-03-03 18:20:00,62.1,24.9,29.65,SW,225,6.3,-999.0,24,-99.99,,,0.00,Acu-Link.com,2013-03-04 01:20:00,
2013-03-03 18:35:00,61.7,28.3,29.65,SW,225,3.2,-999.0,28,-99.99,,,0.00,Acu-Link.com,2013-03-04 01:35:00,
2013-03-03 18:51:00,61.3,28.8,29.65,SSW,202,3.2,-999.0,29,-99.99,,,0.00,Acu-Link.com,2013-03-04 01:51:00,
2013-03-03 19:06:00,60.8,28.3,29.66,WSW,247,2.2,-999.0,29,-99.99,,,0.00,Acu-Link.com,2013-03-04 02:06:00,
2013-03-03 19:21:00,60.3,27.1,29.67,SW,225,0.0,-999.0,28,-99.99,,,0.00,Acu-Link.com,2013-03-04 02:21:00,
2013-03-03 19:37:00,59.7,26.6,29.66,SSE,157,0.0,-999.0,28,-99.99,,,0.00,Acu-Link.com,2013-03-04 02:37:00,
2013-03-03 19:52:00,58.6,26.4,29.66,SE,135,0.0,-999.0,29,-99.99,,,0.00,Acu-Link.com,2013-03-04 02:52:00,
2013-03-03 20:07:00,57.7,25.7,29.65,SE,135,0.0,-999.0,29,-99.99,,,0.00,Acu-Link.com,2013-03-04 03:07:00,
2013-03-03 20:22:00,56.7,27.2,29.65,SSW,202,0.0,-999.0,32,-99.99,,,0.00,Acu-Link.com,2013-03-04 03:22:00,
2013-03-03 20:37:00,56.1,27.4,29.65,ENE,67,0.0,-999.0,33,-99.99,,,0.00,Acu-Link.com,2013-03-04 03:37:00,
2013-03-03 20:53:00,56.7,27.9,29.66,WSW,247,0.0,-999.0,33,-99.99,,,0.00,Acu-Link.com,2013-03-04 03:53:00,
2013-03-03 21:08:00,57.4,28.5,29.66,NNW,337,3.2,-999.0,33,-99.99,,,0.00,Acu-Link.com,2013-03-04 04:08:00,
2013-03-03 21:23:00,57.6,28.7,29.66,SW,225,2.7,-999.0,33,-99.99,,,0.00,Acu-Link.com,2013-03-04 04:23:00,
2013-03-03 21:39:00,57.2,28.4,29.65,WSW,247,1.7,-999.0,33,-99.99,,,0.00,Acu-Link.com,2013-03-04 04:39:00,
2013-03-03 21:54:00,57.2,29.1,29.66,South,180,3.7,-999.0,34,-99.99,,,0.00,Acu-Link.com,2013-03-04 04:54:00,
2013-03-03 22:09:00,56.8,28.7,29.68,WSW,247,3.7,-999.0,34,-99.99,,,0.00,Acu-Link.com,2013-03-04 05:09:00,
2013-03-03 22:24:00,56.5,29.2,29.67,East,90,2.2,-999.0,35,-99.99,,,0.00,Acu-Link.com,2013-03-04 05:24:00,
2013-03-03 22:39:00,56.5,29.2,29.68,West,270,2.7,-999.0,35,-99.99,,,0.00,Acu-Link.com,2013-03-04 05:39:00,
2013-03-03 22:55:00,56.5,29.2,29.68,SW,225,2.2,-999.0,35,-99.99,,,0.00,Acu-Link.com,2013-03-04 05:55:00,
2013-03-03 23:10:00,56.1,29.5,29.68,South,180,1.1,-999.0,36,-99.99,,,0.00,Acu-Link.com,2013-03-04 06:10:00,
2013-03-03 23:25:00,55.8,29.9,29.67,NNE,22,0.0,-999.0,37,-99.99,,,0.00,Acu-Link.com,2013-03-04 06:25:00,
2013-03-03 23:41:00,55.2,29.4,29.66,ESE,112,0.0,-999.0,37,-99.99,,,0.00,Acu-Link.com,2013-03-04 06:41:00,
2013-03-03 23:56:00,55.8,29.3,29.65,NW,315,0.0,-999.0,36,-99.99,,,0.00,Acu-Link.com,2013-03-04 06:56:00,